Time;durP1;ratioP1;P1;durP2;ratioP2;P2;SDS_P1;SDS_P2;PMS_P1;PMS_P2;Temp;Humidity;BMP_temperature;BMP_pressure;BME280_temperature;BME280_humidity;BME280_pressure;Samples;Min_cycle;Max_cycle;Signal;HPM_P1;HPM_P2
2024/04/04 00:02:16;;;;;;;0.65;0.63;;;11.30;99.90;;;;;;6364874;22;20478;-80
2024/04/04 00:04:42;;;;;;;6.05;0.90;;;11.10;99.90;;;;;;6366421;22;20003;-78
2024/04/04 00:07:07;;;;;;;0.70;0.70;;;11.20;99.90;;;;;;6365881;22;20005;-79
2024/04/04 00:09:33;;;;;;;2.92;0.90;;;11.20;99.90;;;;;;6366014;22;20528;-79
2024/04/04 00:11:58;;;;;;;1.70;0.90;;;11.10;99.90;;;;;;6366043;22;20037;-79
2024/04/04 00:14:24;;;;;;;4.18;0.85;;;11.10;99.90;;;;;;6364658;22;20070;-78
2024/04/04 00:16:50;;;;;;;1.95;0.68;;;11.20;99.90;;;;;;6363914;22;20034;-79
2024/04/04 00:19:15;;;;;;;2.38;0.70;;;11.30;99.90;;;;;;6385368;22;20010;-76
2024/04/04 00:21:41;;;;;;;2.10;0.60;;;11.40;99.90;;;;;;6387637;22;19999;-78
2024/04/04 00:24:07;;;;;;;2.63;0.60;;;11.40;99.90;;;;;;6388804;22;20018;-78
2024/04/04 00:26:32;;;;;;;1.45;0.60;;;11.40;99.90;;;;;;6388639;22;19998;-78
2024/04/04 00:28:58;;;;;;;2.10;0.50;;;11.50;99.90;;;;;;6387428;22;20003;-79
2024/04/04 00:31:24;;;;;;;1.75;0.90;;;11.40;99.90;;;;;;6385556;22;19999;-79
2024/04/04 00:33:50;;;;;;;3.65;0.80;;;11.60;99.90;;;;;;6371412;22;20389;-79
2024/04/04 00:36:15;;;;;;;0.65;0.60;;;11.60;99.90;;;;;;6369232;22;20014;-79
2024/04/04 00:38:41;;;;;;;6.15;0.63;;;11.70;99.90;;;;;;6366093;22;20017;-77
2024/04/04 00:41:06;;;;;;;0.43;0.40;;;11.90;99.90;;;;;;6365587;22;20342;-76
2024/04/04 00:43:34;;;;;;;2.47;0.52;;;11.70;99.90;;;;;;6365454;22;19998;-76
2024/04/04 00:46:01;;;;;;;0.85;0.70;;;11.70;99.90;;;;;;6366992;22;20002;-78
2024/04/04 00:48:26;;;;;;;1.25;0.60;;;11.70;99.90;;;;;;6365062;22;20010;-77
2024/04/04 00:50:54;;;;;;;1.65;0.75;;;11.70;99.90;;;;;;6366443;22;21005;-77
2024/04/04 00:53:21;;;;;;;0.88;0.30;;;11.60;99.90;;;;;;6366130;22;20021;-78
2024/04/04 00:55:48;;;;;;;1.60;0.70;;;11.70;99.90;;;;;;6366354;22;20002;-77
2024/04/04 00:58:18;;;;;;;0.47;0.47;;;11.70;99.90;;;;;;6337851;22;20346;-78
2024/04/04 01:00:43;;;;;;;0.60;0.57;;;11.80;99.90;;;;;;6366500;22;20033;-78
2024/04/04 01:03:10;;;;;;;3.83;1.10;;;11.70;99.90;;;;;;6364466;22;20005;-77
2024/04/04 01:05:35;;;;;;;3.17;0.50;;;11.70;99.90;;;;;;6365855;22;20008;-75
2024/04/04 01:08:02;;;;;;;1.02;0.50;;;11.70;99.90;;;;;;6365550;22;20073;-77
2024/04/04 01:10:28;;;;;;;0.75;0.50;;;11.70;99.90;;;;;;6365255;22;19998;-77
2024/04/04 01:12:54;;;;;;;1.70;0.80;;;11.70;99.90;;;;;;6365264;22;20082;-76
2024/04/04 01:15:20;;;;;;;4.57;0.60;;;11.70;99.90;;;;;;6366060;22;20020;-79
2024/04/04 01:17:45;;;;;;;6.57;0.80;;;11.80;99.90;;;;;;6364703;22;20010;-78
2024/04/04 01:20:11;;;;;;;2.13;0.85;;;11.70;99.90;;;;;;6366553;22;20046;-78
2024/04/04 01:22:37;;;;;;;3.50;0.60;;;11.90;99.90;;;;;;6366417;22;20002;-78
2024/04/04 01:25:03;;;;;;;2.72;0.50;;;11.80;99.90;;;;;;6366507;22;20456;-79
2024/04/04 01:27:28;;;;;;;4.45;0.50;;;11.80;99.90;;;;;;6338079;22;20007;-80
2024/04/04 01:29:54;;;;;;;4.35;0.80;;;11.80;99.90;;;;;;6365688;22;20469;-78
2024/04/04 01:32:20;;;;;;;3.35;0.52;;;11.90;99.90;;;;;;6364473;22;19998;-79
2024/04/04 01:34:46;;;;;;;5.55;0.95;;;11.90;99.90;;;;;;6366253;22;20350;-77
2024/04/04 01:37:11;;;;;;;3.50;0.65;;;11.80;99.90;;;;;;6365314;22;19998;-78
2024/04/04 01:39:37;;;;;;;1.83;0.50;;;11.90;99.90;;;;;;6365454;22;20436;-78
2024/04/04 01:42:03;;;;;;;1.38;0.70;;;11.90;99.90;;;;;;6365504;22;20477;-79
2024/04/04 01:44:29;;;;;;;3.92;1.00;;;12.00;99.90;;;;;;6365261;22;20010;-79
2024/04/04 01:46:54;;;;;;;2.55;0.60;;;11.90;99.90;;;;;;6364460;22;20002;-77
2024/04/04 01:49:20;;;;;;;4.22;0.52;;;11.90;99.90;;;;;;6365671;22;20049;-78
2024/04/04 01:51:46;;;;;;;5.65;0.88;;;11.90;99.90;;;;;;6365328;22;20079;-78
2024/04/04 01:54:13;;;;;;;8.40;0.95;;;11.90;99.90;;;;;;6365207;22;19998;-78
2024/04/04 01:56:38;;;;;;;9.05;0.95;;;12.00;99.90;;;;;;6365288;22;20002;-79
2024/04/04 01:59:04;;;;;;;6.93;1.10;;;12.00;99.90;;;;;;6364972;22;20079;-78
2024/04/04 02:01:30;;;;;;;8.40;1.42;;;12.10;99.90;;;;;;6363749;22;20044;-80
2024/04/04 02:03:55;;;;;;;13.30;1.52;;;12.10;99.90;;;;;;6364839;22;20016;-77
2024/04/04 02:06:21;;;;;;;3.90;1.10;;;12.10;99.90;;;;;;6365456;22;20480;-80
2024/04/04 02:08:47;;;;;;;18.23;1.40;;;12.00;99.90;;;;;;6365630;22;19999;-80
2024/04/04 02:11:12;;;;;;;10.38;1.10;;;12.00;99.90;;;;;;6364725;22;20006;-80
2024/04/04 02:13:38;;;;;;;6.57;1.00;;;12.00;99.90;;;;;;6365270;22;20020;-80
2024/04/04 02:16:04;;;;;;;4.53;0.88;;;12.00;99.90;;;;;;6365470;22;20073;-79
2024/04/04 02:18:30;;;;;;;10.10;1.00;;;12.00;99.90;;;;;;6363519;22;20413;-78
2024/04/04 02:20:55;;;;;;;8.82;1.27;;;12.10;99.90;;;;;;6365777;22;20476;-78
2024/04/04 02:23:21;;;;;;;13.48;1.30;;;12.20;99.90;;;;;;6365193;22;20054;-80
2024/04/04 02:25:47;;;;;;;6.22;1.25;;;12.10;99.90;;;;;;6365273;22;20005;-79
2024/04/04 02:28:13;;;;;;;12.25;1.17;;;12.10;99.90;;;;;;6364817;22;20438;-79
2024/04/04 02:30:39;;;;;;;7.65;1.10;;;12.20;99.90;;;;;;6365733;22;20449;-79
2024/04/04 02:33:05;;;;;;;10.00;1.92;;;12.10;99.90;;;;;;6363972;22;20003;-79
2024/04/04 02:35:31;;;;;;;12.80;1.30;;;12.20;99.90;;;;;;6365316;22;20003;-79
2024/04/04 02:38:01;;;;;;;13.23;2.00;;;12.10;99.90;;;;;;6365585;22;20505;-78
2024/04/04 02:40:26;;;;;;;16.67;3.13;;;12.20;99.90;;;;;;6365854;22;20002;-78
2024/04/04 02:42:52;;;;;;;11.75;1.83;;;12.20;99.90;;;;;;6365675;22;20002;-80
2024/04/04 02:45:18;;;;;;;7.95;1.55;;;12.20;99.90;;;;;;6365048;22;20356;-79
2024/04/04 02:47:44;;;;;;;13.82;2.22;;;12.30;99.90;;;;;;6363922;22;20007;-80
2024/04/04 03:46:49;;;;;;;11.43;2.38;;;12.10;99.90;;;;;;6271116;22;20035;-79
2024/04/04 03:49:15;;;;;;;16.25;2.05;;;12.10;99.90;;;;;;6272269;22;20000;-79
2024/04/04 03:51:41;;;;;;;11.95;2.10;;;12.20;99.90;;;;;;6272806;22;19995;-79
2024/04/04 03:54:06;;;;;;;10.40;1.73;;;12.10;99.90;;;;;;6272939;22;20000;-79
2024/04/04 03:56:32;;;;;;;13.77;1.90;;;12.20;99.90;;;;;;6272400;22;20648;-79
2024/04/04 03:58:57;;;;;;;14.88;1.70;;;12.20;99.90;;;;;;6272427;22;20332;-79
2024/04/04 04:01:23;;;;;;;17.85;2.30;;;12.20;99.90;;;;;;6271471;22;20006;-78
2024/04/04 04:03:49;;;;;;;13.73;2.15;;;12.10;99.90;;;;;;6272311;22;20007;-79
2024/04/04 04:06:14;;;;;;;15.27;1.48;;;12.10;99.90;;;;;;6272608;22;20074;-79
2024/04/04 04:08:40;;;;;;;18.38;1.90;;;12.00;99.90;;;;;;6272881;22;20009;-79
2024/04/04 04:11:06;;;;;;;16.00;2.10;;;12.00;99.90;;;;;;6272460;22;20045;-78
2024/04/04 04:13:31;;;;;;;15.80;2.55;;;12.00;99.90;;;;;;6272397;22;20031;-79
2024/04/04 04:15:58;;;;;;;24.80;3.15;;;11.80;99.90;;;;;;6272185;22;20057;-77
2024/04/04 04:18:23;;;;;;;15.02;2.05;;;11.90;99.90;;;;;;6270891;22;20012;-78
2024/04/04 04:23:33;;;;;;;7.78;1.25;;;11.90;99.90;;;;;;6272640;22;20041;-80
2024/04/04 04:25:59;;;;;;;10.88;2.00;;;11.90;99.90;;;;;;6272189;22;20545;-79
2024/04/04 04:28:25;;;;;;;14.70;2.00;;;11.90;99.90;;;;;;6271399;22;20457;-80
2024/04/04 04:30:52;;;;;;;16.17;1.63;;;11.80;99.90;;;;;;6272605;22;19996;-80
2024/04/04 04:33:17;;;;;;;14.32;1.80;;;11.80;99.90;;;;;;6268770;22;20432;-80
2024/04/04 04:35:43;;;;;;;15.15;2.40;;;11.70;99.90;;;;;;6271689;22;20035;-77
2024/04/04 04:38:09;;;;;;;18.08;2.40;;;11.70;99.90;;;;;;6271713;22;20031;-77
2024/04/04 04:40:34;;;;;;;12.13;2.45;;;11.70;99.90;;;;;;6271676;22;19996;-76
2024/04/04 04:43:00;;;;;;;18.33;2.50;;;11.70;99.90;;;;;;6271518;22;20049;-77
2024/04/04 04:45:26;;;;;;;21.05;2.45;;;11.70;99.90;;;;;;6286266;22;20023;-78
2024/04/04 04:47:52;;;;;;;7.88;1.88;;;11.60;99.90;;;;;;6300860;22;20476;-79
2024/04/04 04:50:17;;;;;;;18.42;2.17;;;11.70;99.90;;;;;;6301881;22;20007;-78
2024/04/04 04:52:43;;;;;;;10.25;1.83;;;11.70;99.90;;;;;;6303012;22;20011;-77
2024/04/04 04:55:09;;;;;;;15.00;2.55;;;11.80;99.90;;;;;;6302797;22;19995;-78
2024/04/04 04:57:35;;;;;;;15.32;2.25;;;11.70;99.90;;;;;;6302168;22;20395;-78
2024/04/04 05:00:01;;;;;;;17.33;2.08;;;11.90;99.90;;;;;;6302285;22;20083;-78
2024/04/04 05:02:26;;;;;;;16.85;2.95;;;11.90;99.90;;;;;;6273078;22;20504;-78
2024/04/04 05:04:52;;;;;;;16.40;1.98;;;11.90;99.90;;;;;;6302819;22;20011;-78
2024/04/04 05:07:18;;;;;;;10.63;2.30;;;11.90;99.90;;;;;;6300617;22;20007;-77
2024/04/04 05:09:43;;;;;;;19.33;2.15;;;11.90;99.90;;;;;;6302646;22;20006;-78
2024/04/04 05:12:09;;;;;;;14.95;2.88;;;11.80;99.90;;;;;;6301337;22;20029;-80
2024/04/04 05:14:35;;;;;;;18.58;2.88;;;11.80;99.90;;;;;;6302992;22;20051;-78
2024/04/04 05:17:01;;;;;;;14.43;2.63;;;11.90;99.90;;;;;;6301079;22;20060;-77
2024/04/04 05:19:27;;;;;;;17.10;2.58;;;11.80;99.90;;;;;;6302172;22;20026;-77
2024/04/04 05:21:52;;;;;;;20.50;2.20;;;11.90;99.90;;;;;;6300694;22;20775;-75
2024/04/04 05:24:18;;;;;;;18.15;2.22;;;11.90;99.90;;;;;;6301155;22;20000;-75
2024/04/04 05:26:43;;;;;;;12.75;1.83;;;11.90;99.90;;;;;;6300791;22;20003;-78
2024/04/04 05:29:12;;;;;;;12.50;2.20;;;11.80;99.90;;;;;;6301915;22;20030;-77
2024/04/04 05:31:37;;;;;;;18.77;3.33;;;11.80;99.90;;;;;;6300707;22;20142;-77
2024/04/04 05:34:03;;;;;;;11.00;2.10;;;11.90;99.90;;;;;;6300317;22;20035;-79
2024/04/04 05:36:28;;;;;;;14.88;2.25;;;11.80;99.90;;;;;;6301755;22;20435;-79
2024/04/04 05:38:54;;;;;;;12.93;2.42;;;11.70;99.90;;;;;;6301923;22;20031;-76
2024/04/04 05:41:20;;;;;;;18.98;2.25;;;11.70;99.90;;;;;;6302059;22;20065;-77
2024/04/04 05:43:45;;;;;;;20.98;2.10;;;11.70;99.90;;;;;;6302499;22;20010;-77
2024/04/04 05:46:11;;;;;;;16.45;2.35;;;11.70;99.90;;;;;;6300878;22;20022;-77
2024/04/04 05:48:37;;;;;;;24.00;2.40;;;11.70;99.90;;;;;;6301456;22;20510;-78
2024/04/04 05:51:04;;;;;;;17.25;2.47;;;11.70;99.90;;;;;;6301781;22;20009;-77
2024/04/04 05:53:31;;;;;;;16.90;2.10;;;11.70;99.90;;;;;;6302228;22;19999;-77
2024/04/04 05:55:57;;;;;;;10.60;2.35;;;11.60;99.90;;;;;;6302716;22;20339;-78
2024/04/04 05:58:23;;;;;;;15.00;2.40;;;11.70;99.90;;;;;;6302227;22;20007;-78
2024/04/04 06:00:48;;;;;;;23.75;2.83;;;11.60;99.90;;;;;;6302457;22;20073;-79
2024/04/04 06:03:14;;;;;;;17.02;3.10;;;11.70;99.90;;;;;;6300410;22;19999;-77
2024/04/04 06:05:43;;;;;;;15.23;2.40;;;11.70;99.90;;;;;;6302235;22;19996;-77
2024/04/04 06:08:09;;;;;;;14.73;2.08;;;11.70;99.90;;;;;;6301627;22;20438;-79
2024/04/04 06:10:35;;;;;;;20.63;2.40;;;11.70;99.90;;;;;;6301677;22;20010;-77
2024/04/04 06:13:01;;;;;;;12.02;2.20;;;11.60;99.90;;;;;;6301809;22;20068;-79
2024/04/04 06:15:27;;;;;;;13.90;2.45;;;11.70;99.90;;;;;;6301485;22;20466;-79
2024/04/04 06:17:52;;;;;;;12.00;1.95;;;11.70;99.90;;;;;;6299539;22;20026;-78
2024/04/04 06:20:18;;;;;;;14.63;2.75;;;11.70;99.90;;;;;;6300321;22;20019;-80
2024/04/04 06:22:44;;;;;;;17.00;2.03;;;11.70;99.90;;;;;;6300125;22;20015;-78
2024/04/04 06:25:09;;;;;;;12.10;2.20;;;11.70;99.90;;;;;;6300479;22;19995;-79
2024/04/04 06:27:35;;;;;;;16.08;2.20;;;11.70;99.90;;;;;;6299978;22;20050;-78
2024/04/04 06:30:01;;;;;;;15.10;2.28;;;11.70;99.90;;;;;;6300153;22;20091;-80
2024/04/04 06:32:27;;;;;;;14.38;2.35;;;11.70;99.90;;;;;;6298433;22;20569;-79
2024/04/04 06:34:53;;;;;;;20.08;2.35;;;11.80;99.90;;;;;;6300423;22;19999;-79
2024/04/04 06:37:18;;;;;;;11.45;2.20;;;11.70;99.90;;;;;;6299975;22;20029;-79
2024/04/04 06:39:44;;;;;;;14.82;2.72;;;11.60;99.90;;;;;;6300555;22;20069;-78
2024/04/04 06:42:11;;;;;;;14.07;2.33;;;11.70;99.90;;;;;;6299222;22;19999;-77
2024/04/04 06:44:37;;;;;;;17.33;2.95;;;11.60;99.90;;;;;;6301948;22;20335;-79
2024/04/04 06:47:02;;;;;;;9.82;2.53;;;11.60;99.90;;;;;;6300315;22;20021;-77
2024/04/04 06:49:28;;;;;;;15.80;2.22;;;11.60;99.90;;;;;;6302300;22;20346;-76
2024/04/04 06:51:55;;;;;;;19.35;2.83;;;11.60;99.90;;;;;;6302460;22;20430;-78
2024/04/04 06:54:21;;;;;;;14.98;2.13;;;11.70;99.90;;;;;;6302367;22;20009;-78
2024/04/04 06:56:47;;;;;;;16.98;1.90;;;11.60;99.90;;;;;;6301421;22;20071;-79
2024/04/04 06:59:12;;;;;;;10.95;2.05;;;11.60;99.90;;;;;;6303809;22;20061;-79
2024/04/04 07:01:38;;;;;;;10.07;1.80;;;11.50;99.90;;;;;;6303350;22;20735;-77
2024/04/04 07:04:05;;;;;;;18.23;1.98;;;11.60;99.90;;;;;;6303750;22;20074;-77
2024/04/04 07:06:30;;;;;;;20.60;2.85;;;11.60;99.90;;;;;;6303685;22;20038;-78
2024/04/04 07:08:56;;;;;;;7.32;1.58;;;11.60;99.90;;;;;;6304289;22;20007;-77
2024/04/04 07:11:21;;;;;;;11.82;2.22;;;11.70;99.90;;;;;;6276075;22;20005;-77
2024/04/04 07:13:47;;;;;;;9.20;1.55;;;11.70;99.90;;;;;;6303391;22;20004;-78
2024/04/04 07:16:13;;;;;;;11.82;1.83;;;11.70;99.90;;;;;;6303391;22;20558;-79
2024/04/04 07:18:39;;;;;;;14.35;1.98;;;11.70;99.90;;;;;;6302804;22;20037;-78
2024/04/04 07:21:06;;;;;;;13.38;2.05;;;11.70;99.90;;;;;;6304011;22;20049;-78
2024/04/04 07:23:32;;;;;;;8.80;1.45;;;11.70;99.90;;;;;;6303682;22;19999;-78
2024/04/04 07:25:58;;;;;;;10.63;1.80;;;11.70;99.90;;;;;;6304159;22;20000;-76
2024/04/04 07:28:24;;;;;;;8.13;1.80;;;11.60;99.90;;;;;;6302617;22;20008;-80
2024/04/04 07:30:50;;;;;;;14.75;3.03;;;11.60;99.90;;;;;;6303906;22;20134;-79
2024/04/04 07:33:16;;;;;;;14.20;1.70;;;11.70;99.90;;;;;;6302136;22;20007;-79
2024/04/04 07:35:43;;;;;;;7.95;1.52;;;11.70;99.90;;;;;;6303422;22;19996;-79
2024/04/04 07:38:09;;;;;;;4.45;1.40;;;11.60;99.90;;;;;;6303881;22;20011;-78
2024/04/04 07:40:36;;;;;;;11.18;2.28;;;11.60;99.90;;;;;;6303602;22;20002;-77
2024/04/04 07:43:03;;;;;;;5.18;1.77;;;11.60;99.90;;;;;;6303180;22;20338;-79
2024/04/04 07:45:28;;;;;;;5.57;1.60;;;11.60;99.90;;;;;;6304069;22;20011;-76
2024/04/04 07:47:54;;;;;;;20.58;2.55;;;11.70;99.90;;;;;;6304947;22;20000;-77
2024/04/04 07:50:20;;;;;;;8.73;1.23;;;11.70;99.90;;;;;;6306188;22;20003;-78
2024/04/04 07:52:48;;;;;;;7.65;0.80;;;11.70;99.90;;;;;;6305254;22;20482;-77
2024/04/04 07:55:14;;;;;;;6.85;1.27;;;11.80;99.90;;;;;;6304210;22;20079;-77
2024/04/04 07:57:39;;;;;;;7.32;1.10;;;11.80;99.90;;;;;;6304806;22;20415;-77
2024/04/04 08:00:07;;;;;;;5.35;1.25;;;11.60;99.90;;;;;;6306134;22;20014;-77
2024/04/04 08:02:33;;;;;;;4.07;1.70;;;11.70;99.90;;;;;;6304470;22;20002;-78
2024/04/04 08:04:58;;;;;;;6.32;1.33;;;11.60;99.90;;;;;;6305391;22;20004;-76
2024/04/04 08:07:25;;;;;;;8.60;1.35;;;11.60;99.90;;;;;;6306495;22;20450;-77
2024/04/04 08:09:51;;;;;;;2.92;1.20;;;11.60;99.90;;;;;;6305377;22;19995;-77
2024/04/04 08:12:16;;;;;;;6.85;1.23;;;11.60;99.90;;;;;;6304522;22;20038;-77
2024/04/04 08:14:44;;;;;;;9.98;1.83;;;11.60;99.90;;;;;;6306604;22;20003;-77
2024/04/04 08:17:10;;;;;;;8.20;1.50;;;11.60;99.90;;;;;;6303622;22;20069;-79
2024/04/04 08:19:35;;;;;;;6.97;1.08;;;11.60;99.90;;;;;;6304957;22;20450;-78
2024/04/04 08:22:01;;;;;;;6.68;1.27;;;11.60;99.90;;;;;;6278100;22;20342;-77
2024/04/04 08:24:27;;;;;;;5.72;1.58;;;11.70;99.90;;;;;;6305610;22;20354;-78
2024/04/04 08:26:53;;;;;;;6.75;1.92;;;11.70;99.90;;;;;;6304648;22;20057;-79
2024/04/04 08:29:19;;;;;;;9.00;1.35;;;11.60;99.90;;;;;;6305554;22;20074;-78
2024/04/04 08:31:44;;;;;;;6.50;1.08;;;11.70;99.90;;;;;;6304074;22;19999;-77
2024/04/04 08:34:10;;;;;;;8.38;1.13;;;11.60;99.90;;;;;;6304362;22;20018;-79
2024/04/04 08:36:35;;;;;;;10.05;1.52;;;11.60;99.90;;;;;;6305640;22;20003;-79
2024/04/04 08:39:02;;;;;;;11.32;1.33;;;11.60;99.90;;;;;;6305943;22;20446;-78
2024/04/04 08:41:28;;;;;;;10.10;1.50;;;11.60;99.90;;;;;;6305905;22;20007;-80
2024/04/04 08:43:56;;;;;;;6.88;1.45;;;11.60;99.90;;;;;;6304871;22;19995;-79
2024/04/04 08:46:22;;;;;;;7.78;1.42;;;11.50;99.90;;;;;;6303658;22;20106;-78
2024/04/04 08:48:54;;;;;;;9.73;1.65;;;11.50;99.90;;;;;;6303965;22;20045;-77
2024/04/04 08:51:20;;;;;;;11.38;1.67;;;11.60;99.90;;;;;;6304625;22;20003;-79
2024/04/04 08:53:45;;;;;;;5.97;1.05;;;11.60;99.90;;;;;;6304400;22;20508;-79
2024/04/04 08:56:11;;;;;;;10.90;1.60;;;11.60;99.90;;;;;;6304030;22;20003;-79
2024/04/04 08:58:37;;;;;;;9.40;1.70;;;11.60;99.90;;;;;;6305063;22;20520;-78
2024/04/04 09:01:04;;;;;;;5.47;1.40;;;11.60;99.90;;;;;;6304171;22;20034;-78
2024/04/04 09:03:29;;;;;;;10.50;1.60;;;11.60;99.90;;;;;;6303152;22;20003;-76
2024/04/04 09:05:55;;;;;;;8.25;1.70;;;11.60;99.90;;;;;;6303365;22;20000;-78
2024/04/04 09:08:21;;;;;;;7.35;1.60;;;11.70;99.90;;;;;;6302928;22;20007;-79
2024/04/04 09:10:48;;;;;;;11.93;2.13;;;11.70;99.90;;;;;;6303518;22;20007;-79
2024/04/04 09:13:14;;;;;;;10.90;2.72;;;11.60;99.90;;;;;;6302956;22;19999;-79
2024/04/04 09:15:40;;;;;;;11.32;2.00;;;11.70;99.90;;;;;;6304090;22;20011;-78
2024/04/04 09:18:11;;;;;;;5.75;1.42;;;11.70;99.90;;;;;;6301623;22;20438;-78
2024/04/04 09:20:38;;;;;;;7.40;1.30;;;11.70;99.90;;;;;;6302646;22;20082;-77
2024/04/04 09:23:06;;;;;;;11.40;2.17;;;11.70;99.90;;;;;;6302886;22;19996;-79
2024/04/04 09:25:32;;;;;;;10.32;1.95;;;11.70;99.90;;;;;;6303113;22;20007;-78
2024/04/04 09:28:00;;;;;;;10.43;1.67;;;11.70;99.90;;;;;;6302469;22;20496;-77
2024/04/04 09:30:29;;;;;;;12.20;1.65;;;11.70;99.90;;;;;;6303099;22;20013;-78
2024/04/04 09:32:55;;;;;;;8.30;1.42;;;11.70;99.90;;;;;;6301029;22;20453;-78
2024/04/04 09:35:22;;;;;;;14.82;2.40;;;11.60;99.90;;;;;;6303038;22;20007;-77
2024/04/04 09:37:50;;;;;;;12.52;1.90;;;11.60;99.90;;;;;;6303139;22;20003;-79
2024/04/04 09:40:16;;;;;;;10.95;1.67;;;11.60;99.90;;;;;;6302920;22;20063;-79
2024/04/04 09:42:44;;;;;;;7.80;1.95;;;11.60;99.90;;;;;;6303181;22;20114;-79
2024/04/04 09:45:13;;;;;;;13.25;1.95;;;11.60;99.90;;;;;;6304011;22;20027;-79
2024/04/04 09:47:44;;;;;;;7.95;1.95;;;11.60;99.90;;;;;;6301421;22;20003;-78
2024/04/04 09:50:10;;;;;;;8.40;1.58;;;11.50;99.90;;;;;;6303488;22;20011;-78
2024/04/04 09:52:39;;;;;;;6.55;1.60;;;11.40;99.90;;;;;;6303144;22;20062;-77
2024/04/04 09:55:11;;;;;;;5.70;1.10;;;11.20;99.90;;;;;;6303013;22;19999;-77
2024/04/04 09:57:39;;;;;;;5.57;0.70;;;11.00;99.90;;;;;;6290766;22;20039;-75
2024/04/04 10:00:15;;;;;;;5.13;0.77;;;10.90;99.90;;;;;;6302932;22;20033;-78
2024/04/04 10:02:48;;;;;;;2.38;0.45;;;10.90;99.90;;;;;;6301102;22;20381;-76
2024/04/04 10:05:40;;;;;;;3.92;0.50;;;11.00;99.90;;;;;;6302056;22;20006;-77
2024/04/04 10:08:13;;;;;;;3.47;0.45;;;11.10;99.90;;;;;;6296670;22;20493;-78
2024/04/04 10:10:40;;;;;;;5.47;1.48;;;11.30;99.90;;;;;;6302326;22;20090;-75
2024/04/04 10:13:07;;;;;;;3.90;0.80;;;11.50;99.90;;;;;;6301539;22;19999;-76
2024/04/04 10:15:48;;;;;;;1.65;0.77;;;11.60;99.90;;;;;;6289562;22;20007;-76
2024/04/04 10:18:18;;;;;;;6.78;1.20;;;11.60;99.90;;;;;;6300443;22;20018;-79
2024/04/04 10:20:53;;;;;;;8.43;1.35;;;11.60;99.90;;;;;;6302628;22;20003;-78
2024/04/04 10:23:28;;;;;;;3.85;0.98;;;11.60;99.90;;;;;;6301874;22;20006;-78
2024/04/04 10:26:07;;;;;;;6.60;1.00;;;11.60;99.90;;;;;;6302430;22;20074;-79
2024/04/04 10:28:35;;;;;;;2.17;0.90;;;11.60;99.90;;;;;;6288744;22;20144;-77
2024/04/04 10:31:00;;;;;;;3.65;0.75;;;11.70;99.90;;;;;;6301114;22;20030;-77
2024/04/04 10:33:28;;;;;;;2.10;0.82;;;11.70;99.90;;;;;;6302107;22;20007;-79
2024/04/04 10:35:57;;;;;;;4.88;1.67;;;11.60;99.90;;;;;;6304646;22;19999;-77
2024/04/04 10:38:23;;;;;;;2.70;0.70;;;11.60;99.90;;;;;;6304260;22;20367;-78
2024/04/04 10:40:49;;;;;;;2.25;0.70;;;11.50;99.90;;;;;;6304389;22;20002;-79
2024/04/04 10:43:14;;;;;;;8.27;1.08;;;11.50;99.90;;;;;;6304902;22;20030;-78
2024/04/04 10:45:40;;;;;;;2.58;0.85;;;11.60;99.90;;;;;;6304890;22;20455;-78
2024/04/04 10:48:06;;;;;;;2.65;0.82;;;11.80;99.90;;;;;;6303087;22;20082;-78
2024/04/04 10:50:33;;;;;;;2.78;0.90;;;12.00;99.90;;;;;;6304155;22;19995;-78
2024/04/04 10:52:59;;;;;;;1.40;0.70;;;12.00;99.90;;;;;;6303925;22;20030;-78
2024/04/04 10:55:26;;;;;;;2.72;0.80;;;12.00;99.90;;;;;;6303661;22;20053;-77
2024/04/04 10:57:55;;;;;;;1.08;0.43;;;12.00;99.90;;;;;;6303780;22;20007;-78
2024/04/04 11:00:23;;;;;;;3.45;0.80;;;12.20;99.90;;;;;;6304856;22;19999;-77
2024/04/04 11:02:50;;;;;;;2.63;0.60;;;12.20;99.90;;;;;;6302221;22;20338;-78
2024/04/04 11:05:19;;;;;;;2.88;0.85;;;12.20;99.90;;;;;;6303689;22;20003;-78
2024/04/04 11:07:46;;;;;;;1.95;0.70;;;12.10;99.90;;;;;;6303603;22;20480;-76
2024/04/04 11:10:17;;;;;;;2.70;0.82;;;12.00;99.90;;;;;;6303504;22;19999;-78
2024/04/04 11:12:44;;;;;;;2.95;0.70;;;11.90;99.90;;;;;;6303018;22;19999;-77
2024/04/04 11:15:10;;;;;;;0.95;0.50;;;11.90;99.90;;;;;;6304310;22;20438;-77
2024/04/04 11:17:37;;;;;;;2.40;0.63;;;11.80;99.90;;;;;;6301937;22;20396;-78
2024/04/04 11:20:14;;;;;;;7.75;0.98;;;11.70;99.90;;;;;;6303887;22;20000;-78
2024/04/04 11:22:40;;;;;;;3.25;1.23;;;11.70;99.90;;;;;;6304644;22;20011;-77
2024/04/04 11:25:06;;;;;;;2.13;0.73;;;11.70;99.90;;;;;;6304519;22;20003;-78
2024/04/04 11:27:39;;;;;;;5.78;1.15;;;11.60;99.90;;;;;;6303441;22;20386;-77
2024/04/04 11:30:07;;;;;;;4.63;1.13;;;11.60;99.90;;;;;;6303566;22;20000;-79
2024/04/04 11:32:33;;;;;;;4.78;1.30;;;11.60;99.90;;;;;;6289502;22;20561;-77
2024/04/04 11:34:58;;;;;;;2.42;1.20;;;11.60;99.90;;;;;;6303076;22;20039;-77
2024/04/04 11:37:25;;;;;;;1.63;1.10;;;11.50;99.90;;;;;;6303405;22;20034;-78
2024/04/04 11:39:54;;;;;;;8.90;1.08;;;11.40;99.90;;;;;;6304245;22;20006;-78
2024/04/04 11:42:21;;;;;;;1.25;0.60;;;11.30;99.90;;;;;;6303149;22;20010;-78
2024/04/04 11:44:47;;;;;;;2.20;0.60;;;11.10;99.90;;;;;;6303225;22;20094;-77
2024/04/04 11:47:13;;;;;;;2.75;0.60;;;10.90;99.90;;;;;;6301968;22;20391;-77
2024/04/04 11:49:39;;;;;;;1.95;0.73;;;11.00;99.90;;;;;;6303850;22;20007;-76
2024/04/04 11:52:05;;;;;;;0.43;0.38;;;11.10;99.90;;;;;;6302947;22;20022;-76
2024/04/04 11:54:31;;;;;;;1.92;0.70;;;11.40;99.90;;;;;;6303137;22;20003;-76
2024/04/04 11:56:57;;;;;;;1.98;1.30;;;11.50;99.90;;;;;;6275555;22;20183;-76
2024/04/04 11:59:24;;;;;;;2.20;0.77;;;11.50;99.90;;;;;;6303129;22;20062;-77
2024/04/04 12:01:54;;;;;;;0.70;0.50;;;11.60;99.90;;;;;;6301991;22;20557;-77
2024/04/04 12:04:22;;;;;;;2.22;0.63;;;11.60;99.90;;;;;;6302675;22;20004;-77
2024/04/04 12:06:48;;;;;;;0.60;0.50;;;11.70;99.90;;;;;;6275879;22;20010;-77
2024/04/04 12:09:14;;;;;;;0.45;0.40;;;11.70;67.40;;;;;;6302592;22;20002;-77
2024/04/04 12:11:40;;;;;;;0.43;0.30;;;11.50;99.90;;;;;;6303683;22;20008;-77
2024/04/04 12:14:07;;;;;;;0.93;0.50;;;11.50;99.90;;;;;;6304212;22;20006;-77
2024/04/04 12:16:33;;;;;;;1.17;0.40;;;11.50;99.90;;;;;;6290996;22;20003;-77
2024/04/04 12:21:44;;;;;;;1.20;0.73;;;12.20;56.40;;;;;;6294050;22;20014;-77
2024/04/04 12:24:11;;;;;;;3.05;0.60;;;12.60;99.90;;;;;;6303831;22;20004;-77
2024/04/04 12:26:36;;;;;;;4.22;1.02;;;12.80;99.90;;;;;;6302898;22;20003;-77
2024/04/04 12:29:02;;;;;;;2.83;0.40;;;13.70;99.90;;;;;;6275880;22;20017;-78
2024/04/04 12:31:28;;;;;;;1.85;0.47;;;14.10;91.90;;;;;;6274373;22;20458;-77
2024/04/04 12:33:54;;;;;;;4.22;0.50;;;13.10;99.90;;;;;;6302015;22;19999;-76
2024/04/04 12:36:20;;;;;;;1.70;0.50;;;12.60;99.90;;;;;;6302623;22;20074;-77
2024/04/04 12:38:45;;;;;;;3.00;0.60;;;12.50;99.90;;;;;;6302654;22;20021;-77
2024/04/04 12:41:11;;;;;;;1.63;0.70;;;12.50;99.90;;;;;;6302504;22;20074;-76
2024/04/04 12:43:37;;;;;;;2.15;0.55;;;12.30;99.90;;;;;;6301747;22;20005;-77
2024/04/04 12:46:04;;;;;;;2.15;0.40;;;12.50;99.90;;;;;;6301781;22;20012;-77
2024/04/04 12:48:33;;;;;;;1.83;0.40;;;12.40;99.90;;;;;;6301169;22;20406;-76
2024/04/04 12:50:59;;;;;;;2.80;0.50;;;12.20;99.90;;;;;;6303536;22;20482;-77
2024/04/04 12:53:25;;;;;;;1.65;0.43;;;12.00;99.90;;;;;;6303529;22;20102;-77
2024/04/04 12:55:52;;;;;;;5.82;0.77;;;12.00;99.90;;;;;;6275197;22;20004;-76
2024/04/04 12:58:18;;;;;;;2.65;0.40;;;12.20;99.90;;;;;;6302890;22;20015;-77
2024/04/04 13:00:43;;;;;;;1.95;0.40;;;12.50;99.90;;;;;;6304280;22;20002;-77
2024/04/04 13:03:09;;;;;;;2.50;0.50;;;13.00;99.90;;;;;;6302033;22;20007;-78
2024/04/04 13:05:36;;;;;;;1.25;0.30;;;13.70;99.90;;;;;;6304762;22;20027;-77
2024/04/04 13:08:03;;;;;;;0.60;0.30;;;14.70;99.90;;;;;;6277726;22;20014;-77
2024/04/04 13:10:29;;;;;;;0.40;0.40;;;14.80;99.90;;;;;;6305336;22;19995;-77
2024/04/04 13:12:54;;;;;;;2.08;0.95;;;14.90;41.60;;;;;;6305379;22;20007;-77
2024/04/04 13:15:20;;;;;;;0.82;0.30;;;15.20;24.30;;;;;;6305169;22;20034;-77
2024/04/04 13:17:46;;;;;;;1.80;0.28;;;15.20;99.90;;;;;;6303241;22;20137;-77
2024/04/04 13:20:12;;;;;;;5.45;0.30;;;15.40;98.70;;;;;;6304928;22;20003;-78
2024/04/04 13:22:37;;;;;;;0.95;0.32;;;14.90;90.30;;;;;;6304827;22;20006;-78
2024/04/04 13:25:04;;;;;;;1.13;0.30;;;14.90;1.90;;;;;;6303903;22;20030;-78
2024/04/04 13:27:29;;;;;;;0.70;0.30;;;15.20;96.40;;;;;;6303073;22;20132;-77
2024/04/04 13:29:55;;;;;;;3.63;0.40;;;14.90;99.90;;;;;;6302593;22;20438;-78
2024/04/04 13:32:22;;;;;;;7.07;0.30;;;15.00;90.90;;;;;;6300488;22;20010;-76
2024/04/04 13:34:47;;;;;;;1.08;0.40;;;15.00;16.60;;;;;;6302599;22;20042;-78
2024/04/04 13:37:13;;;;;;;0.65;0.30;;;14.90;99.90;;;;;;6302341;22;20434;-77
2024/04/04 13:39:39;;;;;;;5.78;0.70;;;15.10;1.00;;;;;;6302156;22;20339;-77
2024/04/04 13:42:05;;;;;;;1.00;0.30;;;15.20;26.20;;;;;;6302023;22;19995;-76